Time;durP1;ratioP1;P1;durP2;ratioP2;P2;SDS_P1;SDS_P2;PMS_P1;PMS_P2;Temp;Humidity;BMP_temperature;BMP_pressure;BME280_temperature;BME280_humidity;BME280_pressure;Samples;Min_cycle;Max_cycle;Signal;HPM_P1;HPM_P2
2023/12/24 00:02:04;;;;;;;5.70;2.72;;;1.30;99.90;;;;;;4798100;29;20049;-76
2023/12/24 00:04:32;;;;;;;7.07;2.80;;;1.30;99.90;;;;;;4806473;29;20184;-79
2023/12/24 00:07:12;;;;;;;4.63;2.15;;;1.90;99.90;;;;;;4808624;29;20064;-79
2023/12/24 00:21:40;;;;;;;3.42;1.77;;;1.30;99.90;;;;;;4852915;24;20041;-79
2023/12/24 00:24:10;;;;;;;3.50;1.17;;;0.50;99.90;;;;;;4827214;29;20053;-79
2023/12/24 00:26:41;;;;;;;4.25;1.58;;;1.30;99.90;;;;;;4850491;29;20053;-78
2023/12/24 00:29:10;;;;;;;3.90;1.35;;;1.50;99.90;;;;;;4815890;29;20053;-79
2023/12/24 00:31:40;;;;;;;3.45;1.20;;;1.20;99.90;;;;;;4827064;29;20053;-79
2023/12/24 00:44:15;;;;;;;7.32;2.55;;;1.30;99.90;;;;;;4761000;30;20063;-79
2023/12/24 00:46:49;;;;;;;5.35;1.65;;;1.40;99.90;;;;;;4741439;30;20065;-79
2023/12/24 00:49:18;;;;;;;6.75;2.22;;;1.30;99.90;;;;;;4728405;30;20056;-79
2023/12/24 00:51:53;;;;;;;;;;;1.30;99.90;;;;;;4745308;30;20084;-80
2023/12/24 00:54:23;;;;;;;5.22;2.22;;;2.50;99.90;;;;;;4724656;30;19935;-78
2023/12/24 00:56:51;;;;;;;5.18;1.90;;;1.40;99.90;;;;;;4701326;30;20056;-78
2023/12/24 00:59:21;;;;;;;4.45;1.73;;;1.30;99.90;;;;;;4697318;30;20405;-79
2023/12/24 01:01:50;;;;;;;5.68;2.15;;;1.60;99.90;;;;;;4710144;30;20144;-79
2023/12/24 01:04:19;;;;;;;4.65;1.50;;;1.40;99.90;;;;;;4719471;30;20071;-79
2023/12/24 01:06:48;;;;;;;5.70;2.03;;;1.20;99.90;;;;;;4721211;30;20066;-79
2023/12/24 01:09:17;;;;;;;6.40;2.38;;;1.30;99.90;;;;;;4722767;30;22168;-79
2023/12/24 01:29:59;;;;;;;6.03;1.30;;;1.40;99.90;;;;;;4924835;24;20049;-79
2023/12/24 01:32:28;;;;;;;8.15;2.55;;;1.70;99.90;;;;;;4813180;29;20049;-79
2023/12/24 01:34:58;;;;;;;6.50;2.67;;;2.50;99.90;;;;;;4814064;29;20113;-79
2023/12/24 01:37:27;;;;;;;4.53;1.75;;;1.40;99.90;;;;;;4830126;29;20064;-78
2023/12/24 01:39:56;;;;;;;9.23;2.85;;;1.50;99.90;;;;;;4823472;29;20053;-78
2023/12/24 01:42:25;;;;;;;6.25;2.13;;;1.40;99.90;;;;;;4801850;29;20130;-78
2023/12/24 01:44:54;;;;;;;7.40;2.65;;;1.70;99.90;;;;;;4812217;29;20064;-78
2023/12/24 01:47:24;;;;;;;5.75;1.60;;;1.40;99.90;;;;;;4819367;29;20077;-78
2023/12/24 01:49:53;;;;;;;5.40;1.80;;;1.40;99.90;;;;;;4817096;29;20068;-78
2023/12/24 01:52:22;;;;;;;4.07;1.70;;;1.90;99.90;;;;;;4820198;29;20402;-78
2023/12/24 01:54:51;;;;;;;4.45;2.08;;;1.40;99.90;;;;;;4836539;29;20522;-78
2023/12/24 01:57:20;;;;;;;4.10;1.52;;;1.60;99.90;;;;;;4812482;29;20064;-78
2023/12/24 01:59:50;;;;;;;5.70;1.92;;;1.40;99.90;;;;;;4852465;29;20126;-80
2023/12/24 02:02:22;;;;;;;4.75;2.42;;;1.40;99.90;;;;;;5103656;24;20062;-79
2023/12/24 02:04:53;;;;;;;4.88;1.80;;;2.80;99.90;;;;;;4816678;29;22325;-78
2023/12/24 02:07:28;;;;;;;5.18;2.20;;;1.50;99.90;;;;;;4810270;29;20054;-78
2023/12/24 02:09:59;;;;;;;6.07;2.03;;;0.60;99.90;;;;;;4814817;29;20050;-78
2023/12/24 02:12:28;;;;;;;6.38;2.00;;;1.40;99.90;;;;;;4808430;29;20066;-78
2023/12/24 02:14:58;;;;;;;6.47;2.22;;;1.40;99.90;;;;;;4807157;29;20066;-78
2023/12/24 02:17:28;;;;;;;4.65;1.77;;;1.50;99.90;;;;;;4820612;29;20081;-78
2023/12/24 02:20:00;;;;;;;5.85;1.95;;;1.40;99.90;;;;;;4819286;29;20091;-78
2023/12/24 02:22:32;;;;;;;5.55;1.63;;;1.40;99.90;;;;;;4821439;29;20058;-79
2023/12/24 02:25:02;;;;;;;6.00;1.90;;;1.40;99.90;;;;;;4806018;29;20192;-78
2023/12/24 02:27:49;;;;;;;5.68;2.17;;;1.40;99.90;;;;;;4826200;29;20053;-79
2023/12/24 02:31:04;;;;;;;5.25;2.10;;;0.80;99.90;;;;;;4778760;29;20055;-79
2023/12/24 02:33:55;;;;;;;4.82;1.70;;;1.30;99.90;;;;;;4777950;29;20602;-77
2023/12/24 02:37:34;;;;;;;5.63;1.75;;;1.30;99.90;;;;;;4790282;29;20055;-80
2023/12/24 02:40:55;;;;;;;7.53;2.30;;;1.40;99.90;;;;;;4734956;30;20113;-80
2023/12/24 02:44:15;;;;;;;6.57;2.72;;;1.50;99.90;;;;;;4656202;30;20082;-80
2023/12/24 03:00:04;;;;;;;5.53;1.92;;;1.30;99.90;;;;;;4495416;31;20066;-80
2023/12/24 03:23:30;;;;;;;3.30;1.00;;;1.40;99.90;;;;;;4980385;24;20121;-79
2023/12/24 03:26:03;;;;;;;2.65;0.60;;;1.40;99.90;;;;;;4893486;29;20082;-79
2023/12/24 03:28:35;;;;;;;4.25;1.60;;;1.50;99.90;;;;;;4876370;29;20057;-79
2023/12/24 03:31:09;;;;;;;3.17;1.05;;;1.40;99.90;;;;;;4845015;29;20052;-79
2023/12/24 03:33:45;;;;;;;2.22;0.98;;;1.50;99.90;;;;;;4876681;29;20069;-79
2023/12/24 03:36:18;;;;;;;2.60;0.80;;;1.80;99.90;;;;;;4877084;29;20077;-79
2023/12/24 03:39:06;;;;;;;2.72;1.00;;;1.30;99.90;;;;;;4855856;29;20038;-79
2023/12/24 03:41:37;;;;;;;4.22;1.27;;;1.30;99.90;;;;;;4868974;29;20501;-78
2023/12/24 03:44:09;;;;;;;3.67;1.23;;;1.50;99.90;;;;;;4854639;29;20045;-79
2023/12/24 03:46:39;;;;;;;4.63;1.60;;;0.70;99.90;;;;;;4853994;29;20053;-78
2023/12/24 03:49:12;;;;;;;7.05;1.98;;;1.50;99.90;;;;;;4853538;29;20050;-79
2023/12/24 03:51:42;;;;;;;5.25;2.00;;;1.30;99.90;;;;;;4868973;29;20056;-78
2023/12/24 03:54:13;;;;;;;4.68;1.85;;;1.50;99.90;;;;;;4871691;29;20052;-78
2023/12/24 03:56:49;;;;;;;5.63;2.20;;;1.40;99.90;;;;;;4858532;29;20049;-79
2023/12/24 03:59:21;;;;;;;5.70;1.83;;;1.50;99.90;;;;;;4867030;29;20144;-79
2023/12/24 04:01:59;;;;;;;4.05;1.80;;;1.60;99.90;;;;;;4875819;29;20059;-78
2023/12/24 04:04:38;;;;;;;5.05;1.80;;;1.50;99.90;;;;;;4878506;29;20049;-79
2023/12/24 04:07:10;;;;;;;4.85;1.50;;;1.00;99.90;;;;;;4877980;29;20049;-79
2023/12/24 04:09:44;;;;;;;6.60;1.17;;;0.70;99.90;;;;;;4878283;29;20531;-79
2023/12/24 04:12:20;;;;;;;4.30;1.58;;;1.50;99.90;;;;;;4875706;29;20049;-79
2023/12/24 04:14:50;;;;;;;3.72;1.23;;;1.50;99.90;;;;;;4861592;29;20065;-79
2023/12/24 04:17:23;;;;;;;;;;;1.50;99.90;;;;;;4877768;29;20049;-79
2023/12/24 04:19:58;;;;;;;5.53;1.77;;;1.50;99.90;;;;;;4873081;29;19931;-79
2023/12/24 04:22:48;;;;;;;4.75;1.20;;;1.50;99.90;;;;;;4835976;29;20103;-79
2023/12/24 04:25:33;;;;;;;4.75;1.40;;;1.60;99.90;;;;;;4839776;29;20057;-79
2023/12/24 04:28:05;;;;;;;4.18;1.40;;;1.80;99.90;;;;;;4850914;29;20050;-79
2023/12/24 04:30:37;;;;;;;4.85;1.42;;;1.50;99.90;;;;;;4837655;29;20049;-79
2023/12/24 04:33:08;;;;;;;4.43;1.58;;;0.60;99.90;;;;;;4851492;29;20050;-79
2023/12/24 04:35:37;;;;;;;6.28;1.60;;;1.40;99.90;;;;;;4822184;29;20053;-79
2023/12/24 04:38:07;;;;;;;3.40;1.30;;;0.80;99.90;;;;;;4768751;29;20138;-79
2023/12/24 04:40:41;;;;;;;5.55;1.77;;;1.60;99.90;;;;;;4813262;29;20057;-79
2023/12/24 04:43:10;;;;;;;6.40;1.45;;;1.40;99.90;;;;;;4813133;29;20145;-79
2023/12/24 04:45:39;;;;;;;3.60;1.17;;;1.80;99.90;;;;;;4794384;29;20051;-78
2023/12/24 04:48:08;;;;;;;5.70;2.00;;;1.40;99.90;;;;;;4767628;30;20051;-78
2023/12/24 04:50:40;;;;;;;5.97;1.30;;;1.40;99.90;;;;;;4793268;29;20054;-79
2023/12/24 04:53:09;;;;;;;;;;;1.40;99.90;;;;;;4812422;29;20054;-79
2023/12/24 04:55:40;;;;;;;5.15;1.23;;;1.70;99.90;;;;;;4801936;29;20296;-79
2023/12/24 04:58:14;;;;;;;9.15;3.17;;;1.40;99.90;;;;;;4812032;29;20050;-79
2023/12/24 05:00:43;;;;;;;6.38;3.08;;;1.40;99.90;;;;;;4791920;29;20059;-79
2023/12/24 05:03:15;;;;;;;5.28;2.38;;;1.40;99.90;;;;;;4811014;29;20059;-79
2023/12/24 05:05:46;;;;;;;8.45;2.90;;;1.40;99.90;;;;;;4809614;29;20152;-79
2023/12/24 05:08:14;;;;;;;4.85;2.03;;;1.40;99.90;;;;;;4808768;29;20051;-78
2023/12/24 05:10:45;;;;;;;11.73;4.13;;;1.40;99.90;;;;;;4808278;29;20112;-78
2023/12/24 05:13:14;;;;;;;10.45;4.03;;;1.40;99.90;;;;;;4801162;29;20503;-78
2023/12/24 05:15:47;;;;;;;13.05;4.22;;;1.40;99.90;;;;;;4793380;29;20054;-78
2023/12/24 05:18:19;;;;;;;10.82;4.13;;;1.40;99.90;;;;;;4791865;29;20088;-78
2023/12/24 05:20:48;;;;;;;8.07;3.45;;;1.70;99.90;;;;;;4789832;29;20062;-78
2023/12/24 05:23:19;;;;;;;10.38;3.80;;;1.40;99.90;;;;;;4808347;29;20450;-78
2023/12/24 05:25:52;;;;;;;7.15;2.55;;;1.40;99.90;;;;;;4826426;29;20057;-78
2023/12/24 05:28:23;;;;;;;10.98;4.75;;;1.40;99.90;;;;;;4825262;29;20114;-79
2023/12/24 05:30:53;;;;;;;13.10;4.72;;;1.40;99.90;;;;;;4838074;29;20132;-79
2023/12/24 05:33:21;;;;;;;12.88;5.30;;;1.40;99.90;;;;;;4847597;29;20121;-79
2023/12/24 05:35:51;;;;;;;10.73;4.70;;;1.40;99.90;;;;;;4877337;29;20052;-79
2023/12/24 05:38:24;;;;;;;10.23;4.20;;;1.30;99.90;;;;;;4885027;29;20505;-79
2023/12/24 05:40:55;;;;;;;10.35;4.30;;;1.40;99.90;;;;;;4889487;29;20049;-79
2023/12/24 05:43:24;;;;;;;9.30;3.42;;;1.40;99.90;;;;;;4857576;29;20053;-79
2023/12/24 05:45:54;;;;;;;8.30;3.25;;;1.40;99.90;;;;;;4860234;29;20053;-79
2023/12/24 05:48:26;;;;;;;8.30;2.80;;;1.40;99.90;;;;;;4845032;29;20069;-79
2023/12/24 05:50:58;;;;;;;8.95;3.50;;;1.40;99.90;;;;;;4859755;29;20095;-79
2023/12/24 05:53:27;;;;;;;11.23;3.78;;;1.40;99.90;;;;;;4852305;29;20049;-79
2023/12/24 05:56:00;;;;;;;11.75;5.57;;;1.40;99.90;;;;;;4853697;29;20060;-78
2023/12/24 05:58:30;;;;;;;59.03;16.33;;;1.40;99.90;;;;;;4869301;29;20053;-78
2023/12/24 06:01:00;;;;;;;95.35;26.17;;;1.40;99.90;;;;;;4869135;29;20060;-78
2023/12/24 06:03:31;;;;;;;75.40;22.88;;;1.40;99.90;;;;;;4877918;29;20049;-78
2023/12/24 06:06:01;;;;;;;35.72;12.35;;;1.40;99.90;;;;;;4871634;29;20105;-78
2023/12/24 06:08:29;;;;;;;44.90;14.30;;;1.50;99.90;;;;;;4874490;29;20144;-78
2023/12/24 06:11:02;;;;;;;38.17;12.80;;;1.50;99.90;;;;;;4852403;29;20082;-78
2023/12/24 06:13:32;;;;;;;21.63;11.23;;;1.50;99.90;;;;;;4858189;29;20049;-78
2023/12/24 06:16:02;;;;;;;19.20;8.65;;;1.50;99.90;;;;;;4850360;29;20053;-78
2023/12/24 06:18:37;;;;;;;16.43;6.10;;;1.50;99.90;;;;;;4880651;29;20053;-79
2023/12/24 06:21:07;;;;;;;13.82;6.00;;;1.20;99.90;;;;;;4892319;29;20472;-79
2023/12/24 06:23:37;;;;;;;17.48;8.07;;;1.40;99.90;;;;;;4852909;29;20084;-79
2023/12/24 06:26:11;;;;;;;23.27;10.38;;;1.50;99.90;;;;;;4856536;29;20064;-79
2023/12/24 06:28:42;;;;;;;26.17;11.23;;;1.50;99.90;;;;;;4828546;29;20081;-78
2023/12/24 06:31:11;;;;;;;24.30;11.95;;;1.60;99.90;;;;;;4814278;29;20057;-78
2023/12/24 06:33:41;;;;;;;21.58;10.70;;;1.60;99.90;;;;;;4828038;29;20054;-79
2023/12/24 06:36:11;;;;;;;17.27;8.50;;;1.70;99.90;;;;;;4818961;29;20577;-78
2023/12/24 06:38:40;;;;;;;17.42;8.52;;;1.70;99.90;;;;;;4826385;29;20058;-79
2023/12/24 06:41:11;;;;;;;18.02;8.77;;;1.70;99.90;;;;;;4832129;29;20085;-78
2023/12/24 06:46:30;;;;;;;11.85;6.85;;;1.80;99.90;;;;;;4845490;29;20087;-80
2023/12/24 06:49:07;;;;;;;13.07;4.95;;;2.10;99.90;;;;;;4851340;29;20054;-80
2023/12/24 06:51:45;;;;;;;9.88;4.78;;;1.90;99.90;;;;;;4849406;29;20062;-80
2023/12/24 06:54:15;;;;;;;9.23;3.95;;;1.90;99.90;;;;;;4805200;30;20127;-79
2023/12/24 06:56:50;;;;;;;;;;;1.90;99.90;;;;;;4802541;29;20055;-79
2023/12/24 06:59:20;;;;;;;8.43;3.25;;;1.90;99.90;;;;;;4807928;29;20425;-79
2023/12/24 07:01:54;;;;;;;8.30;3.63;;;2.00;99.90;;;;;;4806174;29;20062;-79
2023/12/24 07:04:25;;;;;;;12.88;3.80;;;1.00;99.90;;;;;;4820231;29;20054;-79
2023/12/24 07:06:56;;;;;;;11.73;3.00;;;2.10;99.90;;;;;;4800757;30;20063;-79
2023/12/24 07:09:25;;;;;;;9.75;4.50;;;2.00;99.90;;;;;;4784149;30;20073;-79
2023/12/24 07:11:57;;;;;;;11.77;4.75;;;2.10;99.90;;;;;;4783397;30;20052;-79
2023/12/24 07:14:26;;;;;;;10.45;4.43;;;2.00;99.90;;;;;;4762913;30;20463;-79
2023/12/24 07:16:59;;;;;;;14.18;5.50;;;1.90;99.90;;;;;;4751210;30;20142;-79
2023/12/24 07:19:29;;;;;;;10.70;4.60;;;1.90;99.90;;;;;;4748285;30;20064;-79
2023/12/24 07:22:06;;;;;;;15.18;6.10;;;1.90;99.90;;;;;;4748413;30;20181;-79
2023/12/24 07:24:37;;;;;;;15.45;6.05;;;2.00;99.90;;;;;;4748270;30;20127;-79
2023/12/24 07:27:09;;;;;;;12.65;4.90;;;0.60;99.90;;;;;;4761731;30;20052;-79
2023/12/24 07:29:43;;;;;;;6.73;3.10;;;2.10;99.90;;;;;;4765145;30;20063;-79
2023/12/24 07:32:15;;;;;;;9.40;3.67;;;2.10;99.90;;;;;;4750530;30;20079;-79
2023/12/24 07:34:49;;;;;;;7.18;2.97;;;2.20;99.90;;;;;;4765671;30;20052;-80
2023/12/24 07:37:27;;;;;;;6.18;2.55;;;3.90;99.90;;;;;;4772628;30;20062;-80
2023/12/24 07:40:10;;;;;;;6.68;2.63;;;2.60;99.90;;;;;;4783435;30;20052;-80
2023/12/24 07:43:02;;;;;;;6.68;2.50;;;1.60;99.90;;;;;;4787256;30;20062;-80
2023/12/24 07:46:00;;;;;;;7.28;2.60;;;2.60;99.90;;;;;;4792028;29;20051;-80
2023/12/24 07:49:09;;;;;;;12.63;3.85;;;2.50;99.90;;;;;;4782896;30;20094;-80
2023/12/24 07:51:50;;;;;;;15.35;4.93;;;2.70;99.90;;;;;;4760239;30;20144;-79
2023/12/24 07:59:39;;;;;;;10.30;2.63;;;2.70;99.90;;;;;;4795137;30;20041;-79
2023/12/24 08:02:10;;;;;;;7.53;2.35;;;2.80;99.90;;;;;;4778875;30;20519;-80
2023/12/24 08:04:54;;;;;;;4.05;1.88;;;3.00;99.90;;;;;;4780055;30;20067;-80
2023/12/24 08:07:32;;;;;;;4.40;1.58;;;1.50;99.90;;;;;;4769873;30;20067;-80
2023/12/24 08:10:09;;;;;;;5.15;1.50;;;3.00;99.90;;;;;;4731251;30;20060;-80
2023/12/24 08:13:00;;;;;;;4.55;1.67;;;3.10;99.90;;;;;;4735813;30;20139;-79
2023/12/24 08:16:11;;;;;;;6.25;2.40;;;3.10;99.90;;;;;;4766656;30;20052;-80
2023/12/24 08:19:19;;;;;;;40.65;16.05;;;3.30;99.90;;;;;;4730535;30;20132;-79
2023/12/24 08:22:17;;;;;;;91.32;39.85;;;3.20;99.90;;;;;;4718260;30;20071;-80
2023/12/24 08:32:40;;;;;;;146.18;51.55;;;3.20;99.90;;;;;;4703843;30;20112;-80
2023/12/24 09:24:49;;;;;;;12.50;6.30;;;3.20;99.90;;;;;;4803360;29;20041;-80
2023/12/24 09:27:18;;;;;;;12.93;5.35;;;3.20;99.90;;;;;;4826522;29;20050;-79
2023/12/24 09:29:52;;;;;;;19.27;10.30;;;3.10;99.90;;;;;;4794541;29;20058;-80
2023/12/24 09:32:29;;;;;;;11.73;5.60;;;3.20;99.90;;;;;;4813129;29;20126;-80
2023/12/24 09:34:57;;;;;;;12.52;4.40;;;3.30;99.90;;;;;;4805769;29;20043;-80
2023/12/24 09:37:26;;;;;;;9.95;4.05;;;4.70;99.90;;;;;;4816001;29;20106;-80
2023/12/24 09:39:56;;;;;;;7.50;3.90;;;3.20;99.90;;;;;;4814302;29;20059;-80
2023/12/24 09:42:26;;;;;;;11.13;4.40;;;3.20;99.90;;;;;;4809648;29;20038;-80
2023/12/24 09:44:55;;;;;;;16.33;5.72;;;3.20;99.90;;;;;;4825537;29;20033;-80
2023/12/24 09:47:24;;;;;;;14.02;5.65;;;3.20;99.90;;;;;;4813376;29;20115;-80
2023/12/24 09:49:53;;;;;;;8.60;3.72;;;3.30;99.90;;;;;;4827282;29;20054;-80
2023/12/24 09:52:22;;;;;;;12.23;4.78;;;2.70;99.90;;;;;;4829839;29;20122;-81
2023/12/24 09:54:51;;;;;;;11.45;4.22;;;3.00;99.90;;;;;;4827315;29;20055;-80
2023/12/24 09:57:24;;;;;;;11.00;4.45;;;3.40;99.90;;;;;;4828818;29;20055;-80
2023/12/24 10:04:36;;;;;;;10.68;4.38;;;3.50;99.90;;;;;;4750628;30;20063;-80
2023/12/24 10:07:09;;;;;;;11.30;5.05;;;3.80;99.90;;;;;;4747162;30;20092;-80
2023/12/24 10:09:44;;;;;;;15.15;7.80;;;4.10;99.90;;;;;;4791246;29;20170;-79
2023/12/24 10:12:14;;;;;;;16.25;8.07;;;3.80;99.90;;;;;;4784913;29;20572;-79
2023/12/24 10:14:55;;;;;;;18.88;8.60;;;3.80;99.90;;;;;;4773429;30;20138;-79
2023/12/24 10:17:30;;;;;;;13.40;6.90;;;2.60;99.90;;;;;;4791720;29;20051;-79
2023/12/24 10:20:02;;;;;;;15.98;6.80;;;3.10;99.90;;;;;;4780082;29;20173;-80
2023/12/24 10:26:13;;;;;;;15.30;6.30;;;3.90;99.90;;;;;;4786362;30;20036;-79
